createdAt,value
2023-12-09T00:00:36.111Z,97830.80
2023-12-09T00:03:24.211Z,97834.00
2023-12-09T00:05:52.474Z,97834.40
2023-12-09T00:08:20.657Z,97836.40
2023-12-09T00:10:48.794Z,97838.00
2023-12-09T00:13:17.934Z,97838.20
2023-12-09T00:15:45.961Z,97835.20
2023-12-09T00:18:15.518Z,97838.40
2023-12-09T00:20:43.665Z,97829.80
2023-12-09T00:23:11.791Z,97832.60
2023-12-09T00:25:40.278Z,97838.00
2023-12-09T00:28:08.280Z,97835.40
2023-12-09T00:30:36.376Z,97834.20
2023-12-09T00:33:05.389Z,97833.80
2023-12-09T00:35:33.662Z,97831.20
2023-12-09T00:38:01.792Z,97834.00
2023-12-09T00:40:29.843Z,97832.60
2023-12-09T00:42:57.799Z,97838.20
2023-12-09T00:45:26.598Z,97837.80
2023-12-09T00:47:55.652Z,97843.00
2023-12-09T00:50:23.902Z,97846.40
2023-12-09T00:52:51.890Z,97847.80
2023-12-09T00:55:20.063Z,97850.60
2023-12-09T00:57:48.350Z,97850.40
2023-12-09T01:00:16.772Z,97849.00
2023-12-09T01:02:44.987Z,97846.00
2023-12-09T01:05:13.019Z,97847.00
2023-12-09T01:07:41.271Z,97843.80
2023-12-09T01:10:09.350Z,97842.20
2023-12-09T01:12:40.713Z,97837.60
2023-12-09T01:15:09.583Z,97836.20
2023-12-09T01:17:37.667Z,97834.80
2023-12-09T01:20:06.359Z,97830.40
2023-12-09T01:22:34.483Z,97832.80
2023-12-09T01:25:02.555Z,97827.00
2023-12-09T01:27:30.700Z,97830.60
2023-12-09T01:29:58.930Z,97834.20
2023-12-09T01:32:27.171Z,97835.60
2023-12-09T01:34:57.179Z,97832.60
2023-12-09T01:37:25.161Z,97826.60
2023-12-09T01:39:53.283Z,97829.80
2023-12-09T01:42:21.660Z,97824.40
2023-12-09T01:44:49.750Z,97825.20
2023-12-09T01:47:18.079Z,97824.60
2023-12-09T01:49:46.374Z,97821.20
2023-12-09T01:52:14.724Z,97818.00
2023-12-09T01:54:42.724Z,97815.80
2023-12-09T01:57:10.966Z,97807.20
2023-12-09T01:59:39.105Z,97804.60
2023-12-09T02:02:07.259Z,97804.40
2023-12-09T02:04:35.626Z,97805.80
2023-12-09T02:07:04.089Z,97807.60
2023-12-09T02:09:33.411Z,97806.20
2023-12-09T02:12:15.638Z,97802.60
2023-12-09T02:14:56.524Z,97798.40
2023-12-09T02:17:30.804Z,97796.40
2023-12-09T02:20:00.288Z,97789.60
2023-12-09T02:22:28.545Z,97790.40
2023-12-09T02:24:57.399Z,97793.00
2023-12-09T02:27:29.026Z,97790.80
2023-12-09T02:30:12.601Z,97796.40
2023-12-09T02:32:40.866Z,97804.20
2023-12-09T02:35:09.853Z,97808.00
2023-12-09T02:37:38.616Z,97804.20
2023-12-09T02:40:11.148Z,97802.60
2023-12-09T02:42:39.544Z,97806.00
2023-12-09T02:45:08.390Z,97800.60
2023-12-09T02:47:36.648Z,97807.40
2023-12-09T02:50:05.319Z,97801.20
2023-12-09T02:52:33.293Z,97801.20
2023-12-09T02:55:01.424Z,97802.00
2023-12-09T02:57:29.591Z,97797.80
2023-12-09T02:59:57.631Z,97795.20
2023-12-09T03:02:25.987Z,97797.20
2023-12-09T03:04:54.438Z,97795.00
2023-12-09T03:07:22.582Z,97805.60
2023-12-09T03:09:50.915Z,97808.00
2023-12-09T03:12:19.169Z,97805.00
2023-12-09T03:14:47.202Z,97803.80
2023-12-09T03:17:15.178Z,97803.00
2023-12-09T03:19:43.426Z,97805.00
2023-12-09T03:22:11.557Z,97805.00
2023-12-09T03:24:39.632Z,97806.20
2023-12-09T03:27:07.847Z,97804.60
2023-12-09T03:29:37.303Z,97800.40
2023-12-09T03:32:05.523Z,97803.00
2023-12-09T03:34:33.623Z,97804.60
2023-12-09T03:37:01.734Z,97802.80
2023-12-09T03:39:29.892Z,97807.60
2023-12-09T03:41:57.992Z,97803.40
2023-12-09T03:44:26.231Z,97804.80
2023-12-09T03:46:54.375Z,97799.00
2023-12-09T03:49:22.664Z,97800.20
2023-12-09T03:51:50.845Z,97799.20
2023-12-09T03:54:18.948Z,97799.00
2023-12-09T03:56:47.007Z,97794.40
2023-12-09T03:59:15.066Z,97796.00
2023-12-09T04:01:49.998Z,97806.00
2023-12-09T04:04:18.147Z,97805.20
2023-12-09T04:06:46.275Z,97807.40
2023-12-09T04:09:15.090Z,97808.40
2023-12-09T04:11:44.645Z,97808.80
2023-12-09T04:14:12.724Z,97801.80
2023-12-09T04:16:43.795Z,97806.60
2023-12-09T04:19:11.914Z,97804.00
2023-12-09T04:21:40.156Z,97807.60
2023-12-09T04:24:08.446Z,97808.20
2023-12-09T04:26:36.503Z,97806.00
2023-12-09T04:29:08.166Z,97805.00
2023-12-09T04:31:36.321Z,97808.00
2023-12-09T04:34:04.440Z,97809.80
2023-12-09T04:36:32.575Z,97809.20
2023-12-09T04:39:00.858Z,97798.80
2023-12-09T04:41:29.098Z,97804.80
2023-12-09T04:43:57.216Z,97803.20
2023-12-09T04:46:25.271Z,97804.20
2023-12-09T04:48:53.540Z,97804.80
2023-12-09T04:51:21.994Z,97807.00
2023-12-09T04:53:50.265Z,97807.60
2023-12-09T04:56:19.242Z,97807.00
2023-12-09T04:58:47.460Z,97809.40
2023-12-09T05:01:16.340Z,97813.60
2023-12-09T05:03:44.640Z,97815.80
2023-12-09T05:06:12.962Z,97816.40
2023-12-09T05:08:43.626Z,97816.00
2023-12-09T05:11:11.899Z,97816.60
2023-12-09T05:13:40.370Z,97816.20
2023-12-09T05:16:08.573Z,97816.40
2023-12-09T05:18:36.770Z,97823.40
2023-12-09T05:21:06.569Z,97825.20
2023-12-09T05:23:36.031Z,97828.60
2023-12-09T05:26:04.221Z,97831.40
2023-12-09T05:28:32.261Z,97835.60
2023-12-09T05:31:00.322Z,97839.60
2023-12-09T05:33:28.549Z,97839.00
2023-12-09T05:35:56.786Z,97843.40
2023-12-09T05:38:25.142Z,97843.00
2023-12-09T05:40:53.100Z,97840.40
2023-12-09T05:43:21.183Z,97846.60
2023-12-09T05:45:49.284Z,97851.20
2023-12-09T05:48:17.495Z,97850.40
2023-12-09T05:50:46.033Z,97851.80
2023-12-09T05:53:14.072Z,97855.60
2023-12-09T05:55:43.135Z,97859.00
2023-12-09T05:58:11.257Z,97863.60
2023-12-09T06:00:39.578Z,97861.20
2023-12-09T06:03:07.665Z,97858.00
2023-12-09T06:05:35.925Z,97862.40
2023-12-09T06:08:04.400Z,97863.40
2023-12-09T06:10:32.491Z,97857.80
2023-12-09T06:13:00.623Z,97854.00
2023-12-09T06:15:28.696Z,97853.00
2023-12-09T06:17:56.995Z,97847.80
2023-12-09T06:20:25.309Z,97852.80
2023-12-09T06:22:53.310Z,97859.00
2023-12-09T06:25:21.274Z,97851.80
2023-12-09T06:27:49.497Z,97851.00
2023-12-09T06:30:17.579Z,97851.20
2023-12-09T06:32:46.203Z,97852.80
2023-12-09T06:35:14.570Z,97846.40
2023-12-09T06:37:42.758Z,97845.40
2023-12-09T06:40:11.665Z,97843.00
2023-12-09T06:42:39.848Z,97850.60
2023-12-09T06:45:08.559Z,97852.00
2023-12-09T06:47:36.934Z,97859.00
2023-12-09T06:50:05.901Z,97850.20
2023-12-09T06:52:34.002Z,97858.40
2023-12-09T06:55:02.528Z,97857.80
2023-12-09T06:57:31.754Z,97862.40
2023-12-09T07:00:00.559Z,97866.60
2023-12-09T07:02:41.037Z,97865.80
2023-12-09T07:05:50.431Z,97866.00
2023-12-09T07:08:24.721Z,97867.40
2023-12-09T07:11:02.573Z,97867.80
2023-12-09T07:13:33.259Z,97864.80
2023-12-09T07:16:01.472Z,97869.00
2023-12-09T07:18:29.806Z,97867.60
2023-12-09T07:20:58.073Z,97864.60
2023-12-09T07:23:26.904Z,97861.40
2023-12-09T07:25:56.556Z,97865.00
2023-12-09T07:28:24.794Z,97862.80
2023-12-09T07:30:53.952Z,97873.00
2023-12-09T07:33:22.454Z,97867.60
2023-12-09T07:35:50.821Z,97870.80
2023-12-09T07:38:21.414Z,97873.60
2023-12-09T07:40:49.501Z,97879.20
2023-12-09T07:43:17.658Z,97875.60
2023-12-09T07:45:45.904Z,97876.20
2023-12-09T07:48:14.097Z,97873.60
2023-12-09T07:50:42.398Z,97876.20
2023-12-09T07:53:10.478Z,97874.00
2023-12-09T07:55:38.549Z,97874.00
2023-12-09T07:58:06.970Z,97874.60
2023-12-09T08:00:35.774Z,97875.20
2023-12-09T08:03:06.011Z,97873.40
2023-12-09T08:05:36.420Z,97877.40
2023-12-09T08:08:05.372Z,97880.80
2023-12-09T08:10:33.520Z,97884.40
2023-12-09T08:13:04.142Z,97883.60
2023-12-09T08:15:32.199Z,97886.00
2023-12-09T08:18:00.507Z,97888.80
2023-12-09T08:20:28.613Z,97886.00
2023-12-09T08:22:56.617Z,97885.40
2023-12-09T08:25:24.753Z,97881.20
2023-12-09T08:27:52.802Z,97879.40
2023-12-09T08:30:20.930Z,97881.20
2023-12-09T08:32:49.282Z,97880.00
2023-12-09T08:35:17.546Z,97881.20
2023-12-09T08:37:45.571Z,97884.20
2023-12-09T08:40:14.014Z,97886.80
2023-12-09T08:42:46.184Z,97888.00
2023-12-09T08:45:19.009Z,97884.20
2023-12-09T08:47:47.828Z,97877.60
2023-12-09T08:52:47.631Z,97878.80
2023-12-09T08:55:16.937Z,97879.60
2023-12-09T08:57:45.097Z,97874.20
2023-12-09T09:00:15.681Z,97869.00
2023-12-09T09:02:44.086Z,97863.20
2023-12-09T09:05:12.105Z,97864.20
2023-12-09T09:07:42.218Z,97862.80
2023-12-09T09:10:10.434Z,97855.40
2023-12-09T09:12:38.631Z,97857.40
2023-12-09T09:15:09.208Z,97853.60
2023-12-09T09:17:38.050Z,97852.40
2023-12-09T09:20:07.222Z,97847.80
2023-12-09T09:22:35.481Z,97849.20
2023-12-09T09:25:03.978Z,97840.40
2023-12-09T09:27:32.290Z,97840.60
2023-12-09T09:30:00.680Z,97837.40
2023-12-09T09:32:29.203Z,97832.80
2023-12-09T09:34:57.703Z,97832.20
2023-12-09T09:37:26.589Z,97830.60
2023-12-09T09:39:55.310Z,97828.80
2023-12-09T09:42:29.095Z,97824.00
2023-12-09T09:45:13.577Z,97827.40
2023-12-09T09:47:41.737Z,97821.60
2023-12-09T09:50:11.574Z,97818.20
2023-12-09T09:52:41.681Z,97819.00
2023-12-09T09:55:09.994Z,97819.00
2023-12-09T09:57:38.701Z,97812.80
2023-12-09T10:00:14.619Z,97811.80
2023-12-09T10:02:55.350Z,97804.20
2023-12-09T10:05:25.282Z,97797.80
2023-12-09T10:07:54.844Z,97791.40
2023-12-09T10:10:23.577Z,97795.60
2023-12-09T10:12:51.937Z,97787.40
2023-12-09T10:15:20.235Z,97791.80
2023-12-09T10:17:48.372Z,97786.60
2023-12-09T10:20:16.762Z,97784.00
2023-12-09T10:22:44.872Z,97774.40
2023-12-09T10:25:13.056Z,97769.00
2023-12-09T10:27:41.648Z,97766.60
2023-12-09T10:30:10.656Z,97756.40
2023-12-09T10:32:39.317Z,97762.80
2023-12-09T10:35:08.345Z,97755.40
2023-12-09T10:37:36.635Z,97756.40
2023-12-09T10:40:05.350Z,97748.20
2023-12-09T10:42:33.796Z,97744.20
2023-12-09T10:45:12.674Z,97740.40
2023-12-09T10:47:41.488Z,97740.00
2023-12-09T10:50:10.008Z,97740.20
2023-12-09T10:52:39.352Z,97743.80
2023-12-09T10:55:08.157Z,97743.20
2023-12-09T10:57:37.250Z,97748.00
2023-12-09T11:00:12.532Z,97743.00
2023-12-09T11:02:41.032Z,97742.60
2023-12-09T11:05:11.051Z,97739.20
2023-12-09T11:07:39.318Z,97734.60
2023-12-09T11:10:08.131Z,97739.80
2023-12-09T11:12:37.474Z,97738.00
2023-12-09T11:15:15.163Z,97738.00
2023-12-09T11:17:48.142Z,97741.20
2023-12-09T11:20:22.634Z,97733.60
2023-12-09T11:22:50.918Z,97738.40
2023-12-09T11:25:23.827Z,97734.40
2023-12-09T11:27:55.872Z,97727.80
2023-12-09T11:30:57.003Z,97724.80
2023-12-09T11:33:25.029Z,97728.00
2023-12-09T11:35:53.200Z,97723.60
2023-12-09T11:38:21.235Z,97720.60
2023-12-09T11:40:49.268Z,97721.80
2023-12-09T11:43:17.429Z,97714.20
2023-12-09T11:45:45.549Z,97717.60
2023-12-09T11:48:13.896Z,97710.60
2023-12-09T11:50:55.908Z,97708.00
2023-12-09T11:53:24.319Z,97707.80
2023-12-09T11:55:52.532Z,97709.60
2023-12-09T11:58:20.788Z,97708.20
2023-12-09T12:00:48.858Z,97706.20
2023-12-09T12:03:30.175Z,97702.60
2023-12-09T12:05:58.370Z,97701.20
2023-12-09T12:08:40.992Z,97695.00
2023-12-09T12:11:09.669Z,97694.20
2023-12-09T12:13:37.893Z,97697.20
2023-12-09T12:16:06.643Z,97691.60
2023-12-09T12:18:35.466Z,97689.20
2023-12-09T12:21:04.952Z,97688.40
2023-12-09T12:23:33.649Z,97686.60
2023-12-09T12:26:08.620Z,97687.20
2023-12-09T12:28:51.501Z,97689.20
2023-12-09T12:31:22.143Z,97689.60
2023-12-09T12:33:50.479Z,97690.60
2023-12-09T12:36:18.757Z,97690.20
2023-12-09T12:38:48.329Z,97688.40
2023-12-09T12:41:17.119Z,97692.60
2023-12-09T12:43:45.090Z,97686.00
2023-12-09T12:46:13.354Z,97686.60
2023-12-09T12:48:53.236Z,97685.80
2023-12-09T12:51:44.530Z,97688.20
2023-12-09T12:54:18.497Z,97685.20
2023-12-09T12:56:46.618Z,97681.20
2023-12-09T12:59:14.865Z,97683.40
2023-12-09T13:01:43.985Z,97685.80
2023-12-09T13:04:12.075Z,97687.20
2023-12-09T13:06:40.204Z,97688.80
2023-12-09T13:09:10.029Z,97690.20
2023-12-09T13:11:38.335Z,97686.20
2023-12-09T13:14:06.427Z,97681.60
2023-12-09T13:16:34.457Z,97684.20
2023-12-09T13:19:02.587Z,97690.20
2023-12-09T13:21:31.260Z,97686.80
2023-12-09T13:23:59.952Z,97691.40
2023-12-09T13:26:28.759Z,97686.20
2023-12-09T13:28:57.132Z,97692.40
2023-12-09T13:31:25.901Z,97689.00
2023-12-09T13:33:54.075Z,97689.20
2023-12-09T13:36:22.505Z,97692.80
2023-12-09T13:38:50.577Z,97697.40
2023-12-09T13:41:18.540Z,97701.20
2023-12-09T13:43:47.943Z,97702.40
2023-12-09T13:46:16.073Z,97698.20
2023-12-09T13:48:44.222Z,97698.20
2023-12-09T13:51:12.619Z,97698.40
2023-12-09T13:53:40.583Z,97690.80
2023-12-09T13:56:09.316Z,97697.20
2023-12-09T13:58:38.026Z,97703.20
2023-12-09T14:01:06.268Z,97702.20
2023-12-09T14:03:34.456Z,97701.60
2023-12-09T14:06:03.015Z,97701.80
2023-12-09T14:08:33.364Z,97702.40
2023-12-09T14:11:03.080Z,97701.20
2023-12-09T14:13:31.182Z,97702.20
2023-12-09T14:15:59.249Z,97708.40
2023-12-09T14:18:27.635Z,97708.20
2023-12-09T14:20:55.817Z,97711.60
2023-12-09T14:23:23.900Z,97705.80
2023-12-09T14:25:52.219Z,97711.20
2023-12-09T14:28:20.520Z,97702.80
2023-12-09T14:30:48.650Z,97704.40
2023-12-09T14:33:17.155Z,97711.40
2023-12-09T14:35:45.505Z,97708.80
2023-12-09T14:38:13.806Z,97706.80
2023-12-09T14:40:45.395Z,97704.00
2023-12-09T14:43:17.490Z,97702.40
2023-12-09T14:45:45.540Z,97698.80
2023-12-09T14:48:14.329Z,97698.80
2023-12-09T14:50:42.607Z,97696.20
2023-12-09T14:53:14.051Z,97693.20
2023-12-09T14:55:42.234Z,97697.80
2023-12-09T14:58:10.969Z,97691.00
2023-12-09T15:00:39.183Z,97692.60
2023-12-09T15:03:07.334Z,97687.40
2023-12-09T15:05:35.680Z,97690.20
2023-12-09T15:08:04.133Z,97687.40
2023-12-09T15:10:32.246Z,97687.20
2023-12-09T15:13:01.295Z,97688.40
2023-12-09T15:15:29.570Z,97689.80
2023-12-09T15:17:57.657Z,97683.00
2023-12-09T15:20:25.783Z,97687.40
2023-12-09T15:22:55.147Z,97683.20
2023-12-09T15:25:23.336Z,97682.20
2023-12-09T15:27:51.562Z,97682.20
2023-12-09T15:30:20.377Z,97677.00
2023-12-09T15:32:49.440Z,97674.80
2023-12-09T15:35:18.234Z,97674.40
2023-12-09T15:37:46.266Z,97678.60
2023-12-09T15:40:17.229Z,97678.80
2023-12-09T15:42:45.629Z,97678.60
2023-12-09T15:45:13.867Z,97680.60
2023-12-09T15:47:42.346Z,97682.40
2023-12-09T15:50:10.454Z,97682.00
2023-12-09T15:52:38.531Z,97683.40
2023-12-09T15:55:07.226Z,97683.40
2023-12-09T15:57:35.470Z,97680.00
2023-12-09T16:00:04.438Z,97676.00
2023-12-09T16:02:33.769Z,97675.40
2023-12-09T16:05:02.317Z,97679.60
2023-12-09T16:07:30.486Z,97681.60
2023-12-09T16:09:58.715Z,97681.00
2023-12-09T16:12:27.093Z,97677.60
2023-12-09T16:14:56.019Z,97678.40
2023-12-09T16:17:24.210Z,97677.60
2023-12-09T16:19:52.401Z,97684.60
2023-12-09T16:22:21.590Z,97685.60
2023-12-09T16:24:49.897Z,97689.80
2023-12-09T16:27:18.178Z,97694.00
2023-12-09T16:29:46.339Z,97692.60
2023-12-09T16:32:14.800Z,97693.20
2023-12-09T16:34:43.996Z,97691.40
2023-12-09T16:37:12.231Z,97687.00
2023-12-09T16:39:40.308Z,97687.20
2023-12-09T16:42:08.895Z,97682.60
2023-12-09T16:44:37.077Z,97678.60
2023-12-09T16:47:08.387Z,97675.00
2023-12-09T16:49:36.642Z,97668.60
2023-12-09T16:52:05.757Z,97660.60
2023-12-09T16:54:34.147Z,97655.80
2023-12-09T16:57:02.767Z,97651.80
2023-12-09T16:59:31.011Z,97650.40
2023-12-09T17:02:00.461Z,97651.40
2023-12-09T17:04:29.135Z,97642.80
2023-12-09T17:07:21.643Z,97639.60
2023-12-09T17:10:15.312Z,97643.60
2023-12-09T17:12:43.665Z,97638.80
2023-12-09T17:15:11.939Z,97638.80
2023-12-09T17:17:40.208Z,97647.60
2023-12-09T17:20:09.210Z,97650.60
2023-12-09T17:22:57.105Z,97641.40
2023-12-09T17:25:27.644Z,97645.40
2023-12-09T17:28:09.936Z,97642.80
2023-12-09T17:30:38.968Z,97638.20
2023-12-09T17:33:11.790Z,97635.40
2023-12-09T17:35:40.417Z,97628.20
2023-12-09T17:38:08.696Z,97623.20
2023-12-09T17:43:28.177Z,97617.60
2023-12-09T17:45:56.258Z,97615.60
2023-12-09T17:48:25.043Z,97610.20
2023-12-09T17:50:56.996Z,97603.80
2023-12-09T17:53:43.554Z,97609.40
2023-12-09T17:56:11.918Z,97607.20
2023-12-09T17:58:43.705Z,97608.40
2023-12-09T18:01:27.092Z,97619.20
2023-12-09T18:04:01.754Z,97615.00
2023-12-09T18:06:30.265Z,97618.00
2023-12-09T18:08:58.450Z,97614.20
2023-12-09T18:11:32.252Z,97616.20
2023-12-09T18:14:05.393Z,97621.20
2023-12-09T18:16:33.531Z,97620.40
2023-12-09T18:19:29.599Z,97618.80
2023-12-09T18:22:03.097Z,97616.80
2023-12-09T18:24:31.510Z,97616.40
2023-12-09T18:27:09.033Z,97614.80
2023-12-09T18:29:37.090Z,97614.00
2023-12-09T18:32:24.968Z,97610.20
2023-12-09T18:34:53.442Z,97605.20
2023-12-09T18:37:28.140Z,97607.40
2023-12-09T18:39:56.305Z,97604.60
2023-12-09T18:42:24.605Z,97600.00
2023-12-09T18:45:07.097Z,97606.20
2023-12-09T18:47:51.693Z,97608.00
2023-12-09T18:50:20.397Z,97600.80
2023-12-09T18:52:48.699Z,97594.20
2023-12-09T18:55:24.225Z,97592.80
2023-12-09T18:57:55.361Z,97598.80
2023-12-09T19:00:23.654Z,97594.80
2023-12-09T19:02:52.081Z,97588.80
2023-12-09T19:05:20.374Z,97586.20
2023-12-09T19:07:48.793Z,97587.00
2023-12-09T19:10:17.083Z,97581.60
2023-12-09T19:12:45.209Z,97579.00
2023-12-09T19:16:42.393Z,97574.00
2023-12-09T19:20:04.617Z,97566.60
2023-12-09T19:31:38.018Z,97547.60
2023-12-09T19:34:06.833Z,97543.80
2023-12-09T19:36:46.947Z,97553.00
2023-12-09T19:39:16.898Z,97556.60
2023-12-09T19:41:46.117Z,97552.20
2023-12-09T19:44:14.300Z,97549.00
2023-12-09T19:46:42.696Z,97536.00
2023-12-09T19:49:11.354Z,97536.60
2023-12-09T19:51:41.048Z,97529.60
2023-12-09T19:54:09.893Z,97529.20
2023-12-09T19:56:41.324Z,97520.80
2023-12-09T19:59:09.419Z,97517.20
2023-12-09T20:01:37.615Z,97516.60
2023-12-09T20:04:05.962Z,97511.60
2023-12-09T20:06:57.281Z,97507.00
2023-12-09T20:09:28.541Z,97494.40
2023-12-09T20:12:04.486Z,97482.20
2023-12-09T20:14:34.839Z,97483.60
2023-12-09T20:17:09.501Z,97476.20
2023-12-09T20:19:45.479Z,97476.20
2023-12-09T20:22:29.161Z,97473.20
2023-12-09T20:24:57.866Z,97474.80
2023-12-09T20:27:25.999Z,97481.40
2023-12-09T20:29:56.513Z,97478.60
2023-12-09T20:32:25.359Z,97474.80
2023-12-09T20:34:54.590Z,97479.80
2023-12-09T20:37:22.875Z,97484.20
2023-12-09T20:39:51.133Z,97475.60
2023-12-09T20:42:19.415Z,97478.60
2023-12-09T20:44:49.953Z,97482.40
2023-12-09T20:47:18.204Z,97475.20
2023-12-09T20:49:46.262Z,97467.60
2023-12-09T20:52:14.339Z,97470.40
2023-12-09T20:54:44.147Z,97475.80
2023-12-09T20:57:13.745Z,97470.60
2023-12-09T20:59:51.031Z,97472.60
2023-12-09T21:02:19.292Z,97463.80
2023-12-09T21:04:49.513Z,97463.40
2023-12-09T21:07:17.633Z,97456.20
2023-12-09T21:09:45.729Z,97463.40
2023-12-09T21:12:22.654Z,97465.80
2023-12-09T21:14:50.763Z,97460.80
2023-12-09T21:17:18.912Z,97457.60
2023-12-09T21:19:47.323Z,97460.80
2023-12-09T21:22:15.976Z,97456.00
2023-12-09T21:24:44.155Z,97458.60
2023-12-09T21:27:12.861Z,97460.40
2023-12-09T21:29:48.610Z,97461.60
2023-12-09T21:32:16.915Z,97469.00
2023-12-09T21:34:52.610Z,97463.80
2023-12-09T21:37:20.833Z,97459.60
2023-12-09T21:39:49.886Z,97463.00
2023-12-09T21:42:18.246Z,97465.80
2023-12-09T21:44:46.498Z,97457.40
2023-12-09T21:47:14.596Z,97446.40
2023-12-09T21:49:43.028Z,97453.60
2023-12-09T21:52:11.384Z,97445.80
2023-12-09T21:54:39.522Z,97439.00
2023-12-09T21:57:07.815Z,97436.80
2023-12-09T21:59:36.509Z,97434.00
2023-12-09T22:02:04.886Z,97435.40
2023-12-09T22:04:32.874Z,97429.40
2023-12-09T22:07:00.941Z,97425.60
2023-12-09T22:09:29.207Z,97421.60
2023-12-09T22:11:57.281Z,97416.40
2023-12-09T22:14:25.466Z,97410.60
2023-12-09T22:16:54.639Z,97411.20
2023-12-09T22:19:23.045Z,97411.40
2023-12-09T22:21:51.482Z,97401.20
2023-12-09T22:24:19.523Z,97394.80
2023-12-09T22:26:47.775Z,97390.60
2023-12-09T22:29:16.047Z,97384.00
2023-12-09T22:31:45.005Z,97382.60
2023-12-09T22:34:13.389Z,97374.80
2023-12-09T22:36:41.856Z,97373.20
2023-12-09T22:39:13.892Z,97375.20
2023-12-09T22:41:42.204Z,97372.80
2023-12-09T22:44:10.504Z,97362.60
2023-12-09T22:46:39.070Z,97363.60
2023-12-09T22:49:07.643Z,97361.00
2023-12-09T22:51:37.484Z,97366.20
2023-12-09T22:54:05.985Z,97363.40
2023-12-09T22:56:34.183Z,97363.40
2023-12-09T22:59:02.326Z,97355.80
2023-12-09T23:01:34.278Z,97350.60
2023-12-09T23:04:02.741Z,97351.40
2023-12-09T23:06:31.208Z,97357.60
2023-12-09T23:08:59.445Z,97354.00
2023-12-09T23:11:27.685Z,97352.80
2023-12-09T23:13:55.722Z,97355.20
2023-12-09T23:16:24.263Z,97350.00
2023-12-09T23:18:52.879Z,97342.20
2023-12-09T23:21:21.114Z,97332.00
2023-12-09T23:23:49.570Z,97340.40
2023-12-09T23:26:17.891Z,97348.40
2023-12-09T23:28:46.101Z,97343.80
2023-12-09T23:31:16.486Z,97345.60
2023-12-09T23:33:48.285Z,97345.20
2023-12-09T23:36:16.951Z,97340.00
2023-12-09T23:38:45.135Z,97341.00
2023-12-09T23:41:16.321Z,97342.20
2023-12-09T23:43:44.664Z,97341.00
2023-12-09T23:46:17.408Z,97348.80
2023-12-09T23:48:45.689Z,97355.60
2023-12-09T23:51:13.980Z,97355.20
2023-12-09T23:53:42.104Z,97357.60
2023-12-09T23:56:10.571Z,97359.80
2023-12-09T23:58:39.121Z,97352.20
